sensor_id;sensor_type;location;lat;lon;timestamp;P1;durP1;ratioP1;P2;durP2;ratioP2
45970;SDS011;31681;48.982;8.394;2022-08-05T00:01:35;5.00;;;3.00;;
45970;SDS011;31681;48.982;8.394;2022-08-05T00:04:00;4.20;;;2.70;;
45970;SDS011;31681;48.982;8.394;2022-08-05T00:06:25;4.23;;;3.10;;
45970;SDS011;31681;48.982;8.394;2022-08-05T00:08:50;3.43;;;2.40;;
45970;SDS011;31681;48.982;8.394;2022-08-05T00:11:16;3.83;;;2.70;;
45970;SDS011;31681;48.982;8.394;2022-08-05T00:13:41;4.15;;;2.88;;
45970;SDS011;31681;48.982;8.394;2022-08-05T00:16:08;3.03;;;2.72;;
45970;SDS011;31681;48.982;8.394;2022-08-05T00:18:34;7.28;;;2.85;;
45970;SDS011;31681;48.982;8.394;2022-08-05T00:20:59;6.32;;;3.03;;
45970;SDS011;31681;48.982;8.394;2022-08-05T00:23:25;3.80;;;3.25;;
45970;SDS011;31681;48.982;8.394;2022-08-05T00:25:50;3.42;;;3.10;;
45970;SDS011;31681;48.982;8.394;2022-08-05T00:28:15;6.07;;;2.65;;
45970;SDS011;31681;48.982;8.394;2022-08-05T00:30:41;4.30;;;2.70;;
45970;SDS011;31681;48.982;8.394;2022-08-05T00:33:06;8.05;;;2.92;;
45970;SDS011;31681;48.982;8.394;2022-08-05T00:35:31;3.88;;;2.90;;
45970;SDS011;31681;48.982;8.394;2022-08-05T00:37:57;5.70;;;2.83;;
45970;SDS011;31681;48.982;8.394;2022-08-05T00:40:23;5.23;;;3.00;;
45970;SDS011;31681;48.982;8.394;2022-08-05T00:42:48;4.00;;;3.15;;
45970;SDS011;31681;48.982;8.394;2022-08-05T00:45:13;5.43;;;2.87;;
45970;SDS011;31681;48.982;8.394;2022-08-05T00:47:39;3.97;;;2.87;;
45970;SDS011;31681;48.982;8.394;2022-08-05T00:50:05;4.85;;;3.10;;
45970;SDS011;31681;48.982;8.394;2022-08-05T00:52:30;5.28;;;3.17;;
45970;SDS011;31681;48.982;8.394;2022-08-05T00:54:55;4.40;;;2.93;;
45970;SDS011;31681;48.982;8.394;2022-08-05T00:57:20;5.17;;;2.93;;
45970;SDS011;31681;48.982;8.394;2022-08-05T00:59:46;2.97;;;2.60;;
45970;SDS011;31681;48.982;8.394;2022-08-05T01:02:12;4.50;;;2.90;;
45970;SDS011;31681;48.982;8.394;2022-08-05T01:04:37;4.17;;;2.70;;
45970;SDS011;31681;48.982;8.394;2022-08-05T01:07:02;5.10;;;3.00;;
45970;SDS011;31681;48.982;8.394;2022-08-05T01:09:28;5.57;;;2.80;;
45970;SDS011;31681;48.982;8.394;2022-08-05T01:11:54;5.60;;;3.27;;
45970;SDS011;31681;48.982;8.394;2022-08-05T01:14:23;7.90;;;3.10;;
45970;SDS011;31681;48.982;8.394;2022-08-05T01:16:51;5.57;;;3.00;;
45970;SDS011;31681;48.982;8.394;2022-08-05T01:21:51;4.82;;;2.72;;
45970;SDS011;31681;48.982;8.394;2022-08-05T01:24:31;6.57;;;3.15;;
45970;SDS011;31681;48.982;8.394;2022-08-05T01:27:02;8.48;;;3.05;;
45970;SDS011;31681;48.982;8.394;2022-08-05T01:29:33;5.05;;;3.03;;
45970;SDS011;31681;48.982;8.394;2022-08-05T01:32:01;7.60;;;3.00;;
45970;SDS011;31681;48.982;8.394;2022-08-05T01:34:30;4.30;;;3.20;;
45970;SDS011;31681;48.982;8.394;2022-08-05T01:37:11;3.60;;;2.88;;
45970;SDS011;31681;48.982;8.394;2022-08-05T01:39:38;5.15;;;3.20;;
45970;SDS011;31681;48.982;8.394;2022-08-05T01:42:05;6.88;;;3.20;;
45970;SDS011;31681;48.982;8.394;2022-08-05T01:44:32;7.28;;;3.13;;
45970;SDS011;31681;48.982;8.394;2022-08-05T01:46:58;5.10;;;3.22;;
45970;SDS011;31681;48.982;8.394;2022-08-05T01:49:24;7.88;;;3.25;;
45970;SDS011;31681;48.982;8.394;2022-08-05T01:51:58;4.45;;;3.03;;
45970;SDS011;31681;48.982;8.394;2022-08-05T01:54:23;9.68;;;3.13;;
45970;SDS011;31681;48.982;8.394;2022-08-05T01:56:49;4.47;;;3.00;;
45970;SDS011;31681;48.982;8.394;2022-08-05T01:59:15;7.05;;;3.55;;
45970;SDS011;31681;48.982;8.394;2022-08-05T02:01:41;3.53;;;3.13;;
45970;SDS011;31681;48.982;8.394;2022-08-05T02:04:08;9.10;;;3.15;;
45970;SDS011;31681;48.982;8.394;2022-08-05T02:06:33;7.18;;;3.70;;
45970;SDS011;31681;48.982;8.394;2022-08-05T02:08:59;6.88;;;3.30;;
45970;SDS011;31681;48.982;8.394;2022-08-05T02:11:24;7.47;;;3.35;;
45970;SDS011;31681;48.982;8.394;2022-08-05T02:13:55;5.95;;;3.35;;
45970;SDS011;31681;48.982;8.394;2022-08-05T02:16:25;7.82;;;3.70;;
45970;SDS011;31681;48.982;8.394;2022-08-05T02:18:57;7.50;;;3.47;;
45970;SDS011;31681;48.982;8.394;2022-08-05T02:21:25;4.80;;;3.33;;
45970;SDS011;31681;48.982;8.394;2022-08-05T02:23:53;6.38;;;3.35;;
45970;SDS011;31681;48.982;8.394;2022-08-05T02:26:20;5.57;;;3.58;;
45970;SDS011;31681;48.982;8.394;2022-08-05T02:28:46;8.38;;;3.33;;
45970;SDS011;31681;48.982;8.394;2022-08-05T02:31:16;6.55;;;3.50;;
45970;SDS011;31681;48.982;8.394;2022-08-05T02:33:46;8.65;;;3.83;;
45970;SDS011;31681;48.982;8.394;2022-08-05T02:36:12;5.47;;;3.47;;
45970;SDS011;31681;48.982;8.394;2022-08-05T02:38:40;10.52;;;3.67;;
45970;SDS011;31681;48.982;8.394;2022-08-05T02:41:06;6.28;;;3.90;;
45970;SDS011;31681;48.982;8.394;2022-08-05T02:43:32;6.40;;;3.08;;
45970;SDS011;31681;48.982;8.394;2022-08-05T02:45:57;7.40;;;3.50;;
45970;SDS011;31681;48.982;8.394;2022-08-05T02:48:23;5.78;;;3.30;;
45970;SDS011;31681;48.982;8.394;2022-08-05T02:50:49;6.80;;;3.45;;
45970;SDS011;31681;48.982;8.394;2022-08-05T02:53:15;6.57;;;3.58;;
45970;SDS011;31681;48.982;8.394;2022-08-05T02:55:42;4.78;;;3.45;;
45970;SDS011;31681;48.982;8.394;2022-08-05T02:58:08;6.70;;;3.33;;
45970;SDS011;31681;48.982;8.394;2022-08-05T03:00:34;7.63;;;3.47;;
45970;SDS011;31681;48.982;8.394;2022-08-05T03:03:00;4.88;;;3.35;;
45970;SDS011;31681;48.982;8.394;2022-08-05T03:05:25;8.82;;;3.95;;
45970;SDS011;31681;48.982;8.394;2022-08-05T03:07:51;4.22;;;3.45;;
45970;SDS011;31681;48.982;8.394;2022-08-05T03:10:17;5.80;;;3.50;;
45970;SDS011;31681;48.982;8.394;2022-08-05T03:12:42;8.38;;;3.40;;
45970;SDS011;31681;48.982;8.394;2022-08-05T03:15:08;6.37;;;3.00;;
45970;SDS011;31681;48.982;8.394;2022-08-05T03:17:34;10.02;;;3.60;;
45970;SDS011;31681;48.982;8.394;2022-08-05T03:19:59;6.35;;;3.47;;
45970;SDS011;31681;48.982;8.394;2022-08-05T03:22:25;5.83;;;3.20;;
45970;SDS011;31681;48.982;8.394;2022-08-05T03:24:50;4.63;;;3.38;;
45970;SDS011;31681;48.982;8.394;2022-08-05T03:27:16;5.75;;;3.60;;
45970;SDS011;31681;48.982;8.394;2022-08-05T03:29:42;8.73;;;3.47;;
45970;SDS011;31681;48.982;8.394;2022-08-05T03:32:07;6.15;;;3.40;;
45970;SDS011;31681;48.982;8.394;2022-08-05T03:34:33;6.78;;;3.47;;
45970;SDS011;31681;48.982;8.394;2022-08-05T03:36:58;7.43;;;3.88;;
45970;SDS011;31681;48.982;8.394;2022-08-05T03:39:24;7.07;;;4.53;;
45970;SDS011;31681;48.982;8.394;2022-08-05T03:41:49;7.00;;;3.53;;
45970;SDS011;31681;48.982;8.394;2022-08-05T03:44:14;9.30;;;4.07;;
45970;SDS011;31681;48.982;8.394;2022-08-05T03:46:39;5.57;;;3.90;;
45970;SDS011;31681;48.982;8.394;2022-08-05T03:49:05;7.55;;;4.40;;
45970;SDS011;31681;48.982;8.394;2022-08-05T03:52:15;11.40;;;4.40;;
45970;SDS011;31681;48.982;8.394;2022-08-05T03:54:29;5.88;;;3.85;;
45970;SDS011;31681;48.982;8.394;2022-08-05T03:56:55;6.05;;;3.78;;
45970;SDS011;31681;48.982;8.394;2022-08-05T03:59:22;11.88;;;4.13;;
45970;SDS011;31681;48.982;8.394;2022-08-05T04:01:48;10.13;;;4.00;;
45970;SDS011;31681;48.982;8.394;2022-08-05T04:04:14;10.95;;;3.90;;
45970;SDS011;31681;48.982;8.394;2022-08-05T04:06:40;7.07;;;3.92;;
45970;SDS011;31681;48.982;8.394;2022-08-05T04:09:06;8.30;;;4.22;;
45970;SDS011;31681;48.982;8.394;2022-08-05T04:11:32;4.85;;;4.05;;
45970;SDS011;31681;48.982;8.394;2022-08-05T04:13:57;7.80;;;3.92;;
45970;SDS011;31681;48.982;8.394;2022-08-05T04:16:23;5.35;;;4.00;;
45970;SDS011;31681;48.982;8.394;2022-08-05T04:18:48;6.43;;;3.92;;
45970;SDS011;31681;48.982;8.394;2022-08-05T04:21:14;8.80;;;4.82;;
45970;SDS011;31681;48.982;8.394;2022-08-05T04:23:40;10.50;;;4.72;;
45970;SDS011;31681;48.982;8.394;2022-08-05T04:26:05;7.77;;;4.40;;
45970;SDS011;31681;48.982;8.394;2022-08-05T04:28:30;6.90;;;4.90;;
45970;SDS011;31681;48.982;8.394;2022-08-05T04:30:56;10.27;;;5.28;;
45970;SDS011;31681;48.982;8.394;2022-08-05T04:33:21;9.75;;;5.40;;
45970;SDS011;31681;48.982;8.394;2022-08-05T04:35:47;10.27;;;5.27;;
45970;SDS011;31681;48.982;8.394;2022-08-05T04:38:12;12.10;;;5.47;;
45970;SDS011;31681;48.982;8.394;2022-08-05T04:40:38;10.00;;;5.40;;
45970;SDS011;31681;48.982;8.394;2022-08-05T04:43:03;11.30;;;4.85;;
45970;SDS011;31681;48.982;8.394;2022-08-05T04:45:29;9.43;;;4.97;;
45970;SDS011;31681;48.982;8.394;2022-08-05T04:48:08;7.18;;;4.15;;
45970;SDS011;31681;48.982;8.394;2022-08-05T04:50:41;6.50;;;4.22;;
45970;SDS011;31681;48.982;8.394;2022-08-05T04:53:07;10.30;;;4.40;;
45970;SDS011;31681;48.982;8.394;2022-08-05T04:55:32;6.10;;;4.15;;
45970;SDS011;31681;48.982;8.394;2022-08-05T04:57:57;7.65;;;3.63;;
45970;SDS011;31681;48.982;8.394;2022-08-05T05:00:23;6.03;;;3.83;;
45970;SDS011;31681;48.982;8.394;2022-08-05T05:02:48;6.05;;;3.50;;
45970;SDS011;31681;48.982;8.394;2022-08-05T05:05:13;6.57;;;3.50;;
45970;SDS011;31681;48.982;8.394;2022-08-05T05:07:38;6.45;;;4.20;;
45970;SDS011;31681;48.982;8.394;2022-08-05T05:10:03;8.23;;;3.77;;
45970;SDS011;31681;48.982;8.394;2022-08-05T05:12:30;7.63;;;3.95;;
45970;SDS011;31681;48.982;8.394;2022-08-05T05:14:55;8.23;;;3.70;;
45970;SDS011;31681;48.982;8.394;2022-08-05T05:17:20;6.07;;;3.37;;
45970;SDS011;31681;48.982;8.394;2022-08-05T05:19:46;9.77;;;3.53;;
45970;SDS011;31681;48.982;8.394;2022-08-05T05:22:11;5.93;;;3.53;;
45970;SDS011;31681;48.982;8.394;2022-08-05T05:24:36;6.10;;;3.88;;
45970;SDS011;31681;48.982;8.394;2022-08-05T05:27:01;5.43;;;3.57;;
45970;SDS011;31681;48.982;8.394;2022-08-05T05:29:27;62.50;;;7.00;;
45970;SDS011;31681;48.982;8.394;2022-08-05T05:31:52;19.58;;;4.57;;
45970;SDS011;31681;48.982;8.394;2022-08-05T05:34:18;9.27;;;3.88;;
45970;SDS011;31681;48.982;8.394;2022-08-05T05:36:44;6.05;;;3.28;;
45970;SDS011;31681;48.982;8.394;2022-08-05T05:39:09;7.23;;;3.57;;
45970;SDS011;31681;48.982;8.394;2022-08-05T05:41:34;5.63;;;3.60;;
45970;SDS011;31681;48.982;8.394;2022-08-05T05:43:59;6.68;;;3.50;;
45970;SDS011;31681;48.982;8.394;2022-08-05T05:46:24;12.47;;;4.03;;
45970;SDS011;31681;48.982;8.394;2022-08-05T05:48:49;4.77;;;3.50;;
45970;SDS011;31681;48.982;8.394;2022-08-05T05:51:18;7.17;;;3.70;;
45970;SDS011;31681;48.982;8.394;2022-08-05T05:53:44;4.80;;;3.78;;
45970;SDS011;31681;48.982;8.394;2022-08-05T05:56:09;7.53;;;4.17;;
45970;SDS011;31681;48.982;8.394;2022-08-05T05:58:34;9.23;;;4.03;;
45970;SDS011;31681;48.982;8.394;2022-08-05T06:00:59;12.80;;;3.87;;
45970;SDS011;31681;48.982;8.394;2022-08-05T06:03:24;7.53;;;3.87;;
45970;SDS011;31681;48.982;8.394;2022-08-05T06:05:51;4.88;;;3.63;;
45970;SDS011;31681;48.982;8.394;2022-08-05T06:08:16;8.38;;;3.80;;
45970;SDS011;31681;48.982;8.394;2022-08-05T06:10:41;7.67;;;3.90;;
45970;SDS011;31681;48.982;8.394;2022-08-05T06:13:06;5.63;;;3.43;;
45970;SDS011;31681;48.982;8.394;2022-08-05T06:15:32;5.57;;;3.50;;
45970;SDS011;31681;48.982;8.394;2022-08-05T06:17:57;7.90;;;4.00;;
45970;SDS011;31681;48.982;8.394;2022-08-05T06:20:22;8.07;;;4.30;;
45970;SDS011;31681;48.982;8.394;2022-08-05T06:22:47;6.23;;;4.13;;
45970;SDS011;31681;48.982;8.394;2022-08-05T06:25:13;7.27;;;3.80;;
45970;SDS011;31681;48.982;8.394;2022-08-05T06:27:38;6.60;;;3.57;;
45970;SDS011;31681;48.982;8.394;2022-08-05T06:30:03;7.03;;;3.70;;
45970;SDS011;31681;48.982;8.394;2022-08-05T06:32:28;10.70;;;3.90;;
45970;SDS011;31681;48.982;8.394;2022-08-05T06:34:54;9.63;;;3.90;;
45970;SDS011;31681;48.982;8.394;2022-08-05T06:37:19;5.85;;;3.88;;
45970;SDS011;31681;48.982;8.394;2022-08-05T06:39:44;4.10;;;3.40;;
45970;SDS011;31681;48.982;8.394;2022-08-05T06:42:09;10.83;;;3.83;;
45970;SDS011;31681;48.982;8.394;2022-08-05T06:44:35;5.93;;;3.00;;
45970;SDS011;31681;48.982;8.394;2022-08-05T06:47:00;6.90;;;3.00;;
45970;SDS011;31681;48.982;8.394;2022-08-05T06:49:25;4.50;;;2.90;;
45970;SDS011;31681;48.982;8.394;2022-08-05T06:51:51;6.50;;;2.80;;
45970;SDS011;31681;48.982;8.394;2022-08-05T06:54:16;7.75;;;2.72;;
45970;SDS011;31681;48.982;8.394;2022-08-05T06:56:41;4.30;;;2.92;;
45970;SDS011;31681;48.982;8.394;2022-08-05T06:59:06;6.93;;;2.83;;
45970;SDS011;31681;48.982;8.394;2022-08-05T07:01:32;4.72;;;2.67;;
45970;SDS011;31681;48.982;8.394;2022-08-05T07:03:57;5.28;;;2.90;;
45970;SDS011;31681;48.982;8.394;2022-08-05T07:06:22;3.97;;;2.50;;
45970;SDS011;31681;48.982;8.394;2022-08-05T07:08:47;3.08;;;2.60;;
45970;SDS011;31681;48.982;8.394;2022-08-05T07:11:13;3.77;;;2.47;;
45970;SDS011;31681;48.982;8.394;2022-08-05T07:13:38;2.53;;;2.30;;
45970;SDS011;31681;48.982;8.394;2022-08-05T07:16:22;3.78;;;2.40;;
45970;SDS011;31681;48.982;8.394;2022-08-05T07:19:06;3.10;;;2.15;;
45970;SDS011;31681;48.982;8.394;2022-08-05T07:21:31;2.97;;;2.40;;
45970;SDS011;31681;48.982;8.394;2022-08-05T07:23:56;4.23;;;2.50;;
45970;SDS011;31681;48.982;8.394;2022-08-05T07:26:22;4.63;;;2.78;;
45970;SDS011;31681;48.982;8.394;2022-08-05T07:28:47;3.65;;;2.78;;
45970;SDS011;31681;48.982;8.394;2022-08-05T07:31:14;3.33;;;2.20;;
45970;SDS011;31681;48.982;8.394;2022-08-05T07:33:39;3.50;;;2.30;;
45970;SDS011;31681;48.982;8.394;2022-08-05T07:36:05;2.50;;;2.30;;
45970;SDS011;31681;48.982;8.394;2022-08-05T07:38:30;2.72;;;2.50;;
45970;SDS011;31681;48.982;8.394;2022-08-05T07:40:55;2.63;;;2.43;;
45970;SDS011;31681;48.982;8.394;2022-08-05T07:43:20;3.17;;;2.37;;
45970;SDS011;31681;48.982;8.394;2022-08-05T07:45:46;3.08;;;2.70;;
45970;SDS011;31681;48.982;8.394;2022-08-05T07:48:11;4.30;;;2.53;;
45970;SDS011;31681;48.982;8.394;2022-08-05T07:50:36;3.77;;;3.00;;
45970;SDS011;31681;48.982;8.394;2022-08-05T07:53:02;3.55;;;2.50;;
45970;SDS011;31681;48.982;8.394;2022-08-05T07:55:27;3.47;;;2.65;;
45970;SDS011;31681;48.982;8.394;2022-08-05T07:57:53;4.07;;;2.63;;
45970;SDS011;31681;48.982;8.394;2022-08-05T08:00:18;4.27;;;2.43;;
45970;SDS011;31681;48.982;8.394;2022-08-05T08:02:43;8.00;;;3.07;;
45970;SDS011;31681;48.982;8.394;2022-08-05T08:05:09;4.13;;;2.63;;
45970;SDS011;31681;48.982;8.394;2022-08-05T08:07:34;4.05;;;2.90;;
45970;SDS011;31681;48.982;8.394;2022-08-05T08:10:00;2.88;;;2.50;;
45970;SDS011;31681;48.982;8.394;2022-08-05T08:12:25;3.10;;;2.35;;
45970;SDS011;31681;48.982;8.394;2022-08-05T08:14:50;2.92;;;2.67;;
45970;SDS011;31681;48.982;8.394;2022-08-05T08:17:16;3.00;;;2.40;;
45970;SDS011;31681;48.982;8.394;2022-08-05T08:19:41;3.43;;;2.70;;
45970;SDS011;31681;48.982;8.394;2022-08-05T08:22:07;3.65;;;2.13;;
45970;SDS011;31681;48.982;8.394;2022-08-05T08:24:32;5.15;;;2.55;;
45970;SDS011;31681;48.982;8.394;2022-08-05T08:26:58;4.15;;;2.53;;
45970;SDS011;31681;48.982;8.394;2022-08-05T08:29:23;2.80;;;2.37;;
45970;SDS011;31681;48.982;8.394;2022-08-05T08:31:49;3.97;;;2.60;;
45970;SDS011;31681;48.982;8.394;2022-08-05T08:34:18;4.18;;;2.22;;
45970;SDS011;31681;48.982;8.394;2022-08-05T08:36:43;2.63;;;2.08;;
45970;SDS011;31681;48.982;8.394;2022-08-05T08:39:09;4.13;;;2.20;;
45970;SDS011;31681;48.982;8.394;2022-08-05T08:41:34;3.70;;;2.50;;
45970;SDS011;31681;48.982;8.394;2022-08-05T08:44:01;2.47;;;2.28;;
45970;SDS011;31681;48.982;8.394;2022-08-05T08:46:28;2.97;;;2.33;;
45970;SDS011;31681;48.982;8.394;2022-08-05T08:48:54;3.65;;;2.40;;
45970;SDS011;31681;48.982;8.394;2022-08-05T08:51:20;4.78;;;2.55;;
45970;SDS011;31681;48.982;8.394;2022-08-05T08:53:46;2.40;;;2.20;;
45970;SDS011;31681;48.982;8.394;2022-08-05T08:56:11;2.58;;;2.38;;
45970;SDS011;31681;48.982;8.394;2022-08-05T08:58:36;3.08;;;2.78;;
45970;SDS011;31681;48.982;8.394;2022-08-05T09:01:02;2.75;;;1.63;;
45970;SDS011;31681;48.982;8.394;2022-08-05T09:03:27;2.47;;;2.10;;
45970;SDS011;31681;48.982;8.394;2022-08-05T09:05:52;3.25;;;2.28;;
45970;SDS011;31681;48.982;8.394;2022-08-05T09:08:17;2.30;;;2.10;;
45970;SDS011;31681;48.982;8.394;2022-08-05T09:10:43;2.90;;;2.22;;
45970;SDS011;31681;48.982;8.394;2022-08-05T09:13:18;3.03;;;2.10;;
45970;SDS011;31681;48.982;8.394;2022-08-05T09:15:44;3.05;;;2.03;;
45970;SDS011;31681;48.982;8.394;2022-08-05T09:18:09;2.78;;;1.88;;
45970;SDS011;31681;48.982;8.394;2022-08-05T09:20:37;4.10;;;2.25;;
45970;SDS011;31681;48.982;8.394;2022-08-05T09:23:12;2.22;;;2.03;;
45970;SDS011;31681;48.982;8.394;2022-08-05T09:25:42;2.33;;;2.13;;
45970;SDS011;31681;48.982;8.394;2022-08-05T09:28:08;4.22;;;2.33;;
45970;SDS011;31681;48.982;8.394;2022-08-05T09:30:33;2.15;;;1.95;;
45970;SDS011;31681;48.982;8.394;2022-08-05T09:33:02;2.30;;;2.05;;
45970;SDS011;31681;48.982;8.394;2022-08-05T09:35:27;3.00;;;2.13;;
45970;SDS011;31681;48.982;8.394;2022-08-05T09:37:53;2.40;;;1.87;;
45970;SDS011;31681;48.982;8.394;2022-08-05T09:40:38;4.00;;;2.58;;
45970;SDS011;31681;48.982;8.394;2022-08-05T09:43:05;3.30;;;2.42;;
45970;SDS011;31681;48.982;8.394;2022-08-05T09:45:35;3.38;;;1.80;;
45970;SDS011;31681;48.982;8.394;2022-08-05T09:48:17;2.50;;;2.15;;
45970;SDS011;31681;48.982;8.394;2022-08-05T09:50:42;3.80;;;2.22;;
45970;SDS011;31681;48.982;8.394;2022-08-05T09:53:12;3.65;;;2.00;;
45970;SDS011;31681;48.982;8.394;2022-08-05T09:55:37;2.50;;;2.03;;
45970;SDS011;31681;48.982;8.394;2022-08-05T09:58:10;2.47;;;1.70;;
45970;SDS011;31681;48.982;8.394;2022-08-05T10:00:35;2.30;;;2.10;;
45970;SDS011;31681;48.982;8.394;2022-08-05T10:03:00;3.65;;;2.10;;
45970;SDS011;31681;48.982;8.394;2022-08-05T10:05:32;2.13;;;1.90;;
45970;SDS011;31681;48.982;8.394;2022-08-05T10:07:58;2.40;;;2.05;;
45970;SDS011;31681;48.982;8.394;2022-08-05T10:10:31;3.30;;;2.15;;
45970;SDS011;31681;48.982;8.394;2022-08-05T10:12:58;2.33;;;1.98;;
45970;SDS011;31681;48.982;8.394;2022-08-05T10:15:24;5.03;;;2.10;;
45970;SDS011;31681;48.982;8.394;2022-08-05T10:20:36;3.40;;;2.30;;
45970;SDS011;31681;48.982;8.394;2022-08-05T10:23:01;2.20;;;2.00;;
45970;SDS011;31681;48.982;8.394;2022-08-05T10:25:27;2.15;;;2.00;;
45970;SDS011;31681;48.982;8.394;2022-08-05T10:27:52;3.00;;;2.20;;
45970;SDS011;31681;48.982;8.394;2022-08-05T10:30:18;2.42;;;1.90;;
45970;SDS011;31681;48.982;8.394;2022-08-05T10:32:44;1.98;;;1.75;;
45970;SDS011;31681;48.982;8.394;2022-08-05T10:35:10;3.88;;;2.50;;
45970;SDS011;31681;48.982;8.394;2022-08-05T10:37:35;3.63;;;2.20;;
45970;SDS011;31681;48.982;8.394;2022-08-05T10:40:02;2.97;;;2.13;;
45970;SDS011;31681;48.982;8.394;2022-08-05T10:42:29;2.30;;;1.98;;
45970;SDS011;31681;48.982;8.394;2022-08-05T10:44:58;2.45;;;1.88;;
45970;SDS011;31681;48.982;8.394;2022-08-05T10:47:29;3.15;;;2.20;;
45970;SDS011;31681;48.982;8.394;2022-08-05T10:49:59;3.33;;;2.10;;
45970;SDS011;31681;48.982;8.394;2022-08-05T10:52:38;3.17;;;2.30;;
45970;SDS011;31681;48.982;8.394;2022-08-05T10:55:07;3.33;;;2.30;;
45970;SDS011;31681;48.982;8.394;2022-08-05T10:57:34;4.32;;;2.40;;
45970;SDS011;31681;48.982;8.394;2022-08-05T11:02:37;4.65;;;2.25;;
45970;SDS011;31681;48.982;8.394;2022-08-05T11:05:04;2.22;;;2.10;;
45970;SDS011;31681;48.982;8.394;2022-08-05T11:07:29;2.47;;;2.08;;
45970;SDS011;31681;48.982;8.394;2022-08-05T11:09:55;5.07;;;2.17;;
45970;SDS011;31681;48.982;8.394;2022-08-05T11:17:29;3.05;;;2.08;;
45970;SDS011;31681;48.982;8.394;2022-08-05T11:19:56;3.08;;;2.10;;
45970;SDS011;31681;48.982;8.394;2022-08-05T11:27:51;2.13;;;1.90;;
45970;SDS011;31681;48.982;8.394;2022-08-05T11:30:16;3.10;;;2.17;;
45970;SDS011;31681;48.982;8.394;2022-08-05T11:32:41;2.95;;;2.10;;
45970;SDS011;31681;48.982;8.394;2022-08-05T11:35:06;3.17;;;2.20;;
45970;SDS011;31681;48.982;8.394;2022-08-05T11:40:03;4.72;;;2.28;;
45970;SDS011;31681;48.982;8.394;2022-08-05T11:42:30;2.63;;;2.13;;
45970;SDS011;31681;48.982;8.394;2022-08-05T11:44:59;3.75;;;2.25;;
45970;SDS011;31681;48.982;8.394;2022-08-05T11:47:26;2.85;;;2.40;;
45970;SDS011;31681;48.982;8.394;2022-08-05T11:49:57;2.77;;;2.40;;
45970;SDS011;31681;48.982;8.394;2022-08-05T11:52:24;3.28;;;2.22;;
45970;SDS011;31681;48.982;8.394;2022-08-05T11:54:50;6.22;;;2.65;;
45970;SDS011;31681;48.982;8.394;2022-08-05T11:57:15;2.97;;;2.67;;
45970;SDS011;31681;48.982;8.394;2022-08-05T11:59:40;3.10;;;2.80;;
45970;SDS011;31681;48.982;8.394;2022-08-05T12:02:06;2.37;;;2.17;;
45970;SDS011;31681;48.982;8.394;2022-08-05T12:04:41;2.80;;;2.55;;
45970;SDS011;31681;48.982;8.394;2022-08-05T12:07:07;4.05;;;2.70;;
45970;SDS011;31681;48.982;8.394;2022-08-05T12:09:37;5.15;;;2.45;;
45970;SDS011;31681;48.982;8.394;2022-08-05T12:12:03;4.93;;;3.05;;
45970;SDS011;31681;48.982;8.394;2022-08-05T12:14:39;3.38;;;2.53;;
45970;SDS011;31681;48.982;8.394;2022-08-05T12:17:12;3.38;;;2.30;;
45970;SDS011;31681;48.982;8.394;2022-08-05T12:19:41;3.63;;;2.63;;
45970;SDS011;31681;48.982;8.394;2022-08-05T12:22:06;2.58;;;2.22;;
45970;SDS011;31681;48.982;8.394;2022-08-05T12:24:32;3.47;;;2.33;;
45970;SDS011;31681;48.982;8.394;2022-08-05T12:26:57;4.07;;;2.47;;
45970;SDS011;31681;48.982;8.394;2022-08-05T12:29:23;2.73;;;2.53;;
45970;SDS011;31681;48.982;8.394;2022-08-05T12:34:14;2.60;;;2.40;;
45970;SDS011;31681;48.982;8.394;2022-08-05T12:36:39;2.60;;;2.40;;
45970;SDS011;31681;48.982;8.394;2022-08-05T12:39:05;2.70;;;2.50;;
45970;SDS011;31681;48.982;8.394;2022-08-05T12:41:31;2.58;;;2.22;;
45970;SDS011;31681;48.982;8.394;2022-08-05T12:43:57;3.05;;;2.80;;
45970;SDS011;31681;48.982;8.394;2022-08-05T12:46:24;3.17;;;2.47;;
45970;SDS011;31681;48.982;8.394;2022-08-05T12:51:27;4.43;;;2.38;;
45970;SDS011;31681;48.982;8.394;2022-08-05T12:54:00;4.05;;;2.88;;
45970;SDS011;31681;48.982;8.394;2022-08-05T12:56:26;2.70;;;2.50;;
45970;SDS011;31681;48.982;8.394;2022-08-05T13:01:53;3.10;;;2.80;;
45970;SDS011;31681;48.982;8.394;2022-08-05T13:04:19;3.75;;;2.80;;
45970;SDS011;31681;48.982;8.394;2022-08-05T13:06:45;3.20;;;2.88;;
45970;SDS011;31681;48.982;8.394;2022-08-05T13:09:10;2.85;;;2.53;;
45970;SDS011;31681;48.982;8.394;2022-08-05T13:11:40;3.20;;;2.35;;
45970;SDS011;31681;48.982;8.394;2022-08-05T13:14:24;2.80;;;2.60;;
45970;SDS011;31681;48.982;8.394;2022-08-05T13:16:50;3.10;;;2.90;;
45970;SDS011;31681;48.982;8.394;2022-08-05T13:19:16;3.15;;;2.85;;
45970;SDS011;31681;48.982;8.394;2022-08-05T13:21:44;3.30;;;3.00;;
45970;SDS011;31681;48.982;8.394;2022-08-05T13:24:09;3.13;;;2.83;;
45970;SDS011;31681;48.982;8.394;2022-08-05T13:26:34;3.77;;;3.33;;
45970;SDS011;31681;48.982;8.394;2022-08-05T13:28:59;3.65;;;3.35;;
45970;SDS011;31681;48.982;8.394;2022-08-05T13:31:25;5.80;;;3.23;;
45970;SDS011;31681;48.982;8.394;2022-08-05T13:33:50;4.80;;;3.33;;
45970;SDS011;31681;48.982;8.394;2022-08-05T13:36:15;5.47;;;3.15;;
45970;SDS011;31681;48.982;8.394;2022-08-05T13:38:41;4.57;;;3.03;;
45970;SDS011;31681;48.982;8.394;2022-08-05T13:41:06;3.83;;;3.53;;
45970;SDS011;31681;48.982;8.394;2022-08-05T13:43:31;4.13;;;2.93;;
45970;SDS011;31681;48.982;8.394;2022-08-05T13:45:56;3.77;;;3.30;;
45970;SDS011;31681;48.982;8.394;2022-08-05T13:48:21;4.00;;;3.60;;
45970;SDS011;31681;48.982;8.394;2022-08-05T13:50:47;4.20;;;3.33;;
45970;SDS011;31681;48.982;8.394;2022-08-05T13:53:12;4.70;;;3.07;;
45970;SDS011;31681;48.982;8.394;2022-08-05T13:55:37;3.90;;;3.43;;
45970;SDS011;31681;48.982;8.394;2022-08-05T13:58:02;3.88;;;3.50;;
45970;SDS011;31681;48.982;8.394;2022-08-05T14:00:28;5.03;;;3.60;;
45970;SDS011;31681;48.982;8.394;2022-08-05T14:02:54;6.60;;;4.03;;
45970;SDS011;31681;48.982;8.394;2022-08-05T14:05:19;4.82;;;3.90;;
45970;SDS011;31681;48.982;8.394;2022-08-05T14:07:44;4.00;;;3.53;;
45970;SDS011;31681;48.982;8.394;2022-08-05T14:10:14;4.30;;;3.50;;
45970;SDS011;31681;48.982;8.394;2022-08-05T14:12:40;6.63;;;3.60;;
45970;SDS011;31681;48.982;8.394;2022-08-05T14:15:06;5.65;;;3.70;;
45970;SDS011;31681;48.982;8.394;2022-08-05T14:17:31;9.20;;;3.97;;
45970;SDS011;31681;48.982;8.394;2022-08-05T14:19:56;4.77;;;3.30;;
45970;SDS011;31681;48.982;8.394;2022-08-05T14:22:21;5.77;;;3.60;;
45970;SDS011;31681;48.982;8.394;2022-08-05T14:24:47;6.00;;;3.28;;
45970;SDS011;31681;48.982;8.394;2022-08-05T14:27:12;3.08;;;2.78;;
45970;SDS011;31681;48.982;8.394;2022-08-05T14:29:37;3.13;;;2.83;;
45970;SDS011;31681;48.982;8.394;2022-08-05T14:32:03;3.53;;;3.22;;
45970;SDS011;31681;48.982;8.394;2022-08-05T14:34:28;3.83;;;3.53;;
45970;SDS011;31681;48.982;8.394;2022-08-05T14:36:53;4.22;;;3.55;;
45970;SDS011;31681;48.982;8.394;2022-08-05T14:39:19;4.67;;;4.20;;
45970;SDS011;31681;48.982;8.394;2022-08-05T14:41:44;3.67;;;3.30;;
45970;SDS011;31681;48.982;8.394;2022-08-05T14:44:09;4.45;;;3.45;;
45970;SDS011;31681;48.982;8.394;2022-08-05T14:46:34;3.87;;;3.57;;
45970;SDS011;31681;48.982;8.394;2022-08-05T14:49:00;3.70;;;3.38;;
45970;SDS011;31681;48.982;8.394;2022-08-05T14:51:26;3.92;;;3.63;;
45970;SDS011;31681;48.982;8.394;2022-08-05T14:53:51;5.95;;;4.00;;
45970;SDS011;31681;48.982;8.394;2022-08-05T14:56:16;3.90;;;3.57;;
45970;SDS011;31681;48.982;8.394;2022-08-05T14:58:42;5.70;;;3.67;;
45970;SDS011;31681;48.982;8.394;2022-08-05T15:01:07;5.63;;;4.07;;
45970;SDS011;31681;48.982;8.394;2022-08-05T15:03:32;4.70;;;4.10;;
45970;SDS011;31681;48.982;8.394;2022-08-05T15:05:57;5.23;;;4.30;;
45970;SDS011;31681;48.982;8.394;2022-08-05T15:08:23;4.97;;;4.43;;
45970;SDS011;31681;48.982;8.394;2022-08-05T15:10:49;4.38;;;4.03;;
45970;SDS011;31681;48.982;8.394;2022-08-05T15:13:14;4.97;;;4.57;;